Terminal Aerodrome Forecast
Issued by NWS El Paso, TX

Home | Current Version | Previous Version | Text Only | Print | Product List | Glossary On
Versions: 1 2 3 4 5 6 7 8 9 10 11 12 13 14 15 16 17
000
FTUS44 KEPZ 010500
TAFELP
TAF
KELP 010523Z 0106/0206 27005KT P6SM SCT040 BKN140
     FM011000 29007KT P6SM SCT010 BKN025 BKN140
      TEMPO 0111/0115 6SM BR
     FM011700 32007KT P6SM BKN030 BKN080
     FM012200 03007KT P6SM SCT050 SCT200=

USA.gov is the U.S. government's official web portal to all federal, state and local government web resources and services.